sensor_id;sensor_type;location;lat;lon;timestamp;pressure;altitude;pressure_sealevel;temperature;humidity
5703;BME280;2876;51.738;10.050;2022-10-04T00:00:45;100074.31;;;8.90;100.00
5703;BME280;2876;51.738;10.050;2022-10-04T00:07:02;100075.19;;;8.74;100.00
5703;BME280;2876;51.738;10.050;2022-10-04T00:13:22;100083.88;;;8.76;100.00
5703;BME280;2876;51.738;10.050;2022-10-04T00:19:47;100076.88;;;8.51;100.00
5703;BME280;2876;51.738;10.050;2022-10-04T00:38:24;100068.50;;;8.62;100.00
5703;BME280;2876;51.738;10.050;2022-10-04T00:57:28;100031.56;;;8.66;100.00
5703;BME280;2876;51.738;10.050;2022-10-04T01:03:42;100029.53;;;8.76;100.00
5703;BME280;2876;51.738;10.050;2022-10-04T01:09:54;100046.91;;;8.88;100.00
5703;BME280;2876;51.738;10.050;2022-10-04T01:16:10;100041.06;;;8.93;100.00
5703;BME280;2876;51.738;10.050;2022-10-04T01:22:33;100026.50;;;8.95;100.00
5703;BME280;2876;51.738;10.050;2022-10-04T01:28:36;100007.59;;;9.05;100.00
5703;BME280;2876;51.738;10.050;2022-10-04T01:34:39;100018.91;;;9.15;100.00
5703;BME280;2876;51.738;10.050;2022-10-04T01:40:54;100011.09;;;9.05;100.00
5703;BME280;2876;51.738;10.050;2022-10-04T01:47:04;100004.19;;;9.19;100.00
5703;BME280;2876;51.738;10.050;2022-10-04T01:54:11;100016.03;;;9.25;100.00
5703;BME280;2876;51.738;10.050;2022-10-04T02:00:16;100006.81;;;9.27;100.00
5703;BME280;2876;51.738;10.050;2022-10-04T02:06:25;99993.78;;;9.24;100.00
5703;BME280;2876;51.738;10.050;2022-10-04T02:12:29;99961.13;;;9.29;100.00
5703;BME280;2876;51.738;10.050;2022-10-04T02:18:38;99972.63;;;9.37;100.00
5703;BME280;2876;51.738;10.050;2022-10-04T02:24:47;99979.59;;;9.47;100.00
5703;BME280;2876;51.738;10.050;2022-10-04T02:30:51;99965.25;;;9.39;100.00
5703;BME280;2876;51.738;10.050;2022-10-04T02:37:13;99973.53;;;9.22;100.00
5703;BME280;2876;51.738;10.050;2022-10-04T02:43:37;99986.81;;;9.07;100.00
5703;BME280;2876;51.738;10.050;2022-10-04T02:56:15;99963.78;;;8.98;100.00
5703;BME280;2876;51.738;10.050;2022-10-04T03:02:28;99956.09;;;8.95;100.00
5703;BME280;2876;51.738;10.050;2022-10-04T03:14:43;99942.69;;;9.03;100.00
5703;BME280;2876;51.738;10.050;2022-10-04T03:20:46;99946.09;;;9.28;100.00
5703;BME280;2876;51.738;10.050;2022-10-04T03:33:22;99958.25;;;8.99;100.00
5703;BME280;2876;51.738;10.050;2022-10-04T03:39:31;99938.69;;;8.99;100.00
5703;BME280;2876;51.738;10.050;2022-10-04T03:45:34;99925.44;;;9.13;100.00
5703;BME280;2876;51.738;10.050;2022-10-04T03:51:37;99926.69;;;9.26;100.00
5703;BME280;2876;51.738;10.050;2022-10-04T03:57:44;99951.94;;;9.31;100.00
5703;BME280;2876;51.738;10.050;2022-10-04T04:04:00;99944.16;;;9.13;100.00
5703;BME280;2876;51.738;10.050;2022-10-04T04:10:29;99937.34;;;9.03;100.00
5703;BME280;2876;51.738;10.050;2022-10-04T04:16:32;99933.88;;;8.94;100.00
5703;BME280;2876;51.738;10.050;2022-10-04T04:22:35;99932.00;;;9.03;100.00
5703;BME280;2876;51.738;10.050;2022-10-04T04:35:20;99920.91;;;9.14;100.00
5703;BME280;2876;51.738;10.050;2022-10-04T04:41:24;99903.31;;;9.20;100.00
5703;BME280;2876;51.738;10.050;2022-10-04T04:47:47;99905.19;;;9.11;100.00
5703;BME280;2876;51.738;10.050;2022-10-04T04:53:52;99908.22;;;9.08;100.00
5703;BME280;2876;51.738;10.050;2022-10-04T04:59:58;99900.81;;;9.18;100.00
5703;BME280;2876;51.738;10.050;2022-10-04T05:06:01;99905.78;;;9.21;100.00
5703;BME280;2876;51.738;10.050;2022-10-04T05:12:19;99907.00;;;9.19;100.00
5703;BME280;2876;51.738;10.050;2022-10-04T05:18:31;99913.47;;;9.24;100.00
5703;BME280;2876;51.738;10.050;2022-10-04T05:24:38;99917.13;;;9.31;100.00
5703;BME280;2876;51.738;10.050;2022-10-04T05:43:51;99914.69;;;9.45;100.00
5703;BME280;2876;51.738;10.050;2022-10-04T05:49:56;99921.34;;;9.49;100.00
5703;BME280;2876;51.738;10.050;2022-10-04T05:56:09;99932.44;;;9.69;100.00
5703;BME280;2876;51.738;10.050;2022-10-04T06:09:05;99943.09;;;9.77;100.00
5703;BME280;2876;51.738;10.050;2022-10-04T06:28:49;99950.75;;;10.03;100.00
5703;BME280;2876;51.738;10.050;2022-10-04T07:20:26;99980.38;;;11.06;99.49
5703;BME280;2876;51.738;10.050;2022-10-04T07:26:47;99972.47;;;11.34;97.90
5703;BME280;2876;51.738;10.050;2022-10-04T07:32:50;99959.84;;;11.50;97.21
5703;BME280;2876;51.738;10.050;2022-10-04T07:39:28;99953.13;;;11.60;97.05
5703;BME280;2876;51.738;10.050;2022-10-04T07:45:36;99949.56;;;12.17;96.71
5703;BME280;2876;51.738;10.050;2022-10-04T08:12:04;99939.56;;;15.34;75.45
5703;BME280;2876;51.738;10.050;2022-10-04T08:25:22;99948.75;;;14.49;79.11
5703;BME280;2876;51.738;10.050;2022-10-04T08:38:15;99956.41;;;14.71;78.52
5703;BME280;2876;51.738;10.050;2022-10-04T08:44:46;99956.22;;;14.40;80.86
5703;BME280;2876;51.738;10.050;2022-10-04T08:51:34;99940.66;;;14.42;80.29
5703;BME280;2876;51.738;10.050;2022-10-04T09:11:31;99944.84;;;15.16;77.57
5703;BME280;2876;51.738;10.050;2022-10-04T09:37:24;99973.06;;;25.84;45.96
5703;BME280;2876;51.738;10.050;2022-10-04T09:50:46;99969.13;;;29.14;37.97
5703;BME280;2876;51.738;10.050;2022-10-04T10:03:51;99948.53;;;29.06;38.22
5703;BME280;2876;51.738;10.050;2022-10-04T10:23:01;99909.31;;;20.88;56.15
5703;BME280;2876;51.738;10.050;2022-10-04T11:21:11;99868.31;;;26.73;37.59
5703;BME280;2876;51.738;10.050;2022-10-04T12:22:17;99799.78;;;29.36;33.81
5703;BME280;2876;51.738;10.050;2022-10-04T12:48:40;99773.22;;;26.38;37.56
5703;BME280;2876;51.738;10.050;2022-10-04T12:54:38;99774.28;;;25.89;38.30
5703;BME280;2876;51.738;10.050;2022-10-04T13:00:44;99765.91;;;26.76;37.77
5703;BME280;2876;51.738;10.050;2022-10-04T13:26:52;99755.78;;;30.90;30.90
5703;BME280;2876;51.738;10.050;2022-10-04T13:33:10;99737.84;;;30.96;31.13
5703;BME280;2876;51.738;10.050;2022-10-04T14:34:49;99703.28;;;32.40;29.83
5703;BME280;2876;51.738;10.050;2022-10-04T14:47:40;99689.78;;;33.67;28.61
5703;BME280;2876;51.738;10.050;2022-10-04T15:01:22;99674.69;;;33.68;27.69
5703;BME280;2876;51.738;10.050;2022-10-04T15:33:54;99668.63;;;32.07;30.58
5703;BME280;2876;51.738;10.050;2022-10-04T15:53:41;99663.59;;;28.63;36.12
5703;BME280;2876;51.738;10.050;2022-10-04T16:06:21;99646.72;;;27.27;38.21
5703;BME280;2876;51.738;10.050;2022-10-04T16:12:30;99629.47;;;24.63;44.06
5703;BME280;2876;51.738;10.050;2022-10-04T16:25:35;99622.28;;;21.93;50.94
5703;BME280;2876;51.738;10.050;2022-10-04T16:44:37;99655.25;;;17.19;67.52
5703;BME280;2876;51.738;10.050;2022-10-04T16:57:23;99637.00;;;15.58;75.69
5703;BME280;2876;51.738;10.050;2022-10-04T17:03:34;99630.13;;;14.93;79.05
5703;BME280;2876;51.738;10.050;2022-10-04T17:42:39;99626.50;;;13.60;86.77
5703;BME280;2876;51.738;10.050;2022-10-04T17:48:55;99627.53;;;13.59;86.69
5703;BME280;2876;51.738;10.050;2022-10-04T17:55:24;99632.50;;;13.55;86.97
5703;BME280;2876;51.738;10.050;2022-10-04T18:01:41;99640.00;;;13.47;87.15
5703;BME280;2876;51.738;10.050;2022-10-04T18:08:02;99630.06;;;13.34;87.49
5703;BME280;2876;51.738;10.050;2022-10-04T18:14:43;99630.69;;;13.16;87.67
5703;BME280;2876;51.738;10.050;2022-10-04T18:27:24;99639.59;;;13.10;88.34
5703;BME280;2876;51.738;10.050;2022-10-04T18:33:51;99649.53;;;12.89;87.95
5703;BME280;2876;51.738;10.050;2022-10-04T18:46:22;99651.19;;;12.70;89.53
5703;BME280;2876;51.738;10.050;2022-10-04T18:59:40;99651.78;;;12.59;90.64
5703;BME280;2876;51.738;10.050;2022-10-04T19:06:32;99659.03;;;12.59;90.59
5703;BME280;2876;51.738;10.050;2022-10-04T19:13:25;99652.38;;;12.48;91.58
5703;BME280;2876;51.738;10.050;2022-10-04T19:25:50;99665.03;;;12.54;90.89
5703;BME280;2876;51.738;10.050;2022-10-04T19:32:53;99668.94;;;12.52;90.83
5703;BME280;2876;51.738;10.050;2022-10-04T19:39:09;99678.69;;;12.53;90.86
5703;BME280;2876;51.738;10.050;2022-10-04T19:51:45;99664.81;;;12.49;90.94
5703;BME280;2876;51.738;10.050;2022-10-04T20:04:25;99661.66;;;12.32;90.47
5703;BME280;2876;51.738;10.050;2022-10-04T20:10:39;99663.28;;;12.20;90.52
5703;BME280;2876;51.738;10.050;2022-10-04T20:30:02;99696.84;;;11.89;90.99
5703;BME280;2876;51.738;10.050;2022-10-04T20:42:39;99658.81;;;11.58;92.88
5703;BME280;2876;51.738;10.050;2022-10-04T20:48:42;99641.28;;;11.62;93.45
5703;BME280;2876;51.738;10.050;2022-10-04T20:54:51;99642.31;;;11.61;93.20
5703;BME280;2876;51.738;10.050;2022-10-04T21:00:56;99646.03;;;11.60;93.50
5703;BME280;2876;51.738;10.050;2022-10-04T21:07:15;99655.75;;;11.61;94.01
5703;BME280;2876;51.738;10.050;2022-10-04T21:13:56;99655.66;;;11.48;94.12
5703;BME280;2876;51.738;10.050;2022-10-04T21:19:58;99640.66;;;11.60;93.78
5703;BME280;2876;51.738;10.050;2022-10-04T21:26:23;99655.91;;;11.53;93.25
5703;BME280;2876;51.738;10.050;2022-10-04T21:32:27;99655.19;;;11.37;92.59
5703;BME280;2876;51.738;10.050;2022-10-04T21:38:33;99640.59;;;11.18;94.69
5703;BME280;2876;51.738;10.050;2022-10-04T21:44:35;99648.41;;;11.13;96.06
5703;BME280;2876;51.738;10.050;2022-10-04T21:50:37;99642.06;;;11.21;95.23
5703;BME280;2876;51.738;10.050;2022-10-04T21:56:39;99650.34;;;11.26;95.10
5703;BME280;2876;51.738;10.050;2022-10-04T22:02:41;99640.50;;;11.05;95.67
5703;BME280;2876;51.738;10.050;2022-10-04T22:08:46;99627.28;;;11.04;95.56
5703;BME280;2876;51.738;10.050;2022-10-04T22:14:48;99602.47;;;11.02;95.51
5703;BME280;2876;51.738;10.050;2022-10-04T22:21:00;99599.81;;;11.02;96.37
5703;BME280;2876;51.738;10.050;2022-10-04T22:27:02;99590.69;;;10.96;95.61
5703;BME280;2876;51.738;10.050;2022-10-04T22:33:49;99594.13;;;10.90;96.27
5703;BME280;2876;51.738;10.050;2022-10-04T22:40:23;99600.97;;;10.92;96.71
5703;BME280;2876;51.738;10.050;2022-10-04T22:46:35;99588.97;;;10.88;96.59
5703;BME280;2876;51.738;10.050;2022-10-04T22:52:37;99595.00;;;10.69;97.42
5703;BME280;2876;51.738;10.050;2022-10-04T22:58:43;99585.34;;;10.75;95.85
5703;BME280;2876;51.738;10.050;2022-10-04T23:04:56;99585.91;;;10.63;95.99
5703;BME280;2876;51.738;10.050;2022-10-04T23:11:00;99598.03;;;10.59;96.55
5703;BME280;2876;51.738;10.050;2022-10-04T23:17:34;99601.47;;;10.53;97.32
5703;BME280;2876;51.738;10.050;2022-10-04T23:23:37;99607.03;;;10.52;97.87
5703;BME280;2876;51.738;10.050;2022-10-04T23:29:39;99615.81;;;10.67;98.22
5703;BME280;2876;51.738;10.050;2022-10-04T23:35:43;99618.19;;;10.77;98.07
5703;BME280;2876;51.738;10.050;2022-10-04T23:41:45;99616.72;;;11.02;97.87
5703;BME280;2876;51.738;10.050;2022-10-04T23:47:56;99604.81;;;11.11;97.67
5703;BME280;2876;51.738;10.050;2022-10-04T23:54:02;99610.06;;;10.91;97.37
